createdAt,value
2023-03-29T00:00:17.746Z,70.81
2023-03-29T00:01:35.351Z,70.74
2023-03-29T00:02:19.706Z,70.84
2023-03-29T00:03:18.940Z,70.84
2023-03-29T00:04:18.948Z,70.84
2023-03-29T00:05:19.212Z,70.95
2023-03-29T00:06:19.527Z,71.05
2023-03-29T00:07:19.856Z,71.26
2023-03-29T00:08:20.171Z,71.37
2023-03-29T00:09:20.472Z,71.37
2023-03-29T00:10:20.757Z,71.37
2023-03-29T00:11:21.113Z,71.40
2023-03-29T00:12:21.315Z,71.50
2023-03-29T00:13:21.652Z,71.47
2023-03-29T00:14:21.973Z,71.58
2023-03-29T00:15:22.299Z,71.71
2023-03-29T00:16:22.689Z,71.92
2023-03-29T00:17:22.961Z,72.02
2023-03-29T00:18:23.152Z,72.13
2023-03-29T00:19:23.489Z,72.24
2023-03-29T00:20:23.787Z,72.34
2023-03-29T00:21:24.102Z,72.34
2023-03-29T00:22:24.397Z,72.55
2023-03-29T00:23:24.712Z,72.55
2023-03-29T00:24:25.015Z,72.55
2023-03-29T00:25:25.325Z,72.55
2023-03-29T00:26:25.639Z,72.55
2023-03-29T00:27:25.998Z,72.55
2023-03-29T00:28:26.284Z,72.65
2023-03-29T00:29:26.576Z,72.65
2023-03-29T00:30:26.895Z,72.65
2023-03-29T00:31:27.282Z,72.34
2023-03-29T00:32:27.509Z,72.09
2023-03-29T00:33:27.668Z,71.89
2023-03-29T00:34:27.991Z,71.37
2023-03-29T00:35:28.325Z,71.05
2023-03-29T00:36:28.618Z,70.84
2023-03-29T00:37:28.940Z,70.74
2023-03-29T00:38:29.234Z,70.84
2023-03-29T00:39:29.531Z,70.95
2023-03-29T00:40:29.844Z,71.26
2023-03-29T00:41:30.177Z,71.37
2023-03-29T00:42:30.509Z,71.50
2023-03-29T00:43:30.817Z,71.71
2023-03-29T00:44:31.138Z,71.92
2023-03-29T00:45:31.462Z,72.13
2023-03-29T00:46:31.850Z,72.24
2023-03-29T00:47:32.068Z,72.34
2023-03-29T00:48:32.348Z,72.34
2023-03-29T00:49:32.660Z,72.44
2023-03-29T00:50:32.978Z,72.44
2023-03-29T00:51:33.285Z,72.55
2023-03-29T00:52:33.664Z,72.55
2023-03-29T00:53:33.848Z,72.58
2023-03-29T00:54:34.124Z,72.58
2023-03-29T00:55:34.445Z,72.68
2023-03-29T00:56:34.739Z,72.68
2023-03-29T00:57:35.062Z,72.78
2023-03-29T00:58:35.409Z,73.00
2023-03-29T00:59:35.633Z,73.21
2023-03-29T01:00:35.926Z,73.21
2023-03-29T01:01:36.250Z,73.31
2023-03-29T01:02:36.663Z,73.31
2023-03-29T01:03:37.052Z,73.41
2023-03-29T01:04:37.275Z,73.41
2023-03-29T01:05:37.465Z,73.10
2023-03-29T01:06:37.841Z,73.00
2023-03-29T01:07:38.056Z,73.00
2023-03-29T01:08:38.272Z,72.89
2023-03-29T01:09:38.573Z,73.00
2023-03-29T01:10:38.881Z,73.21
2023-03-29T01:11:39.182Z,73.31
2023-03-29T01:12:39.518Z,73.41
2023-03-29T01:13:39.846Z,73.52
2023-03-29T01:14:40.143Z,73.52
2023-03-29T01:15:40.455Z,73.62
2023-03-29T01:16:40.851Z,73.62
2023-03-29T01:17:41.099Z,73.72
2023-03-29T01:18:41.371Z,73.72
2023-03-29T01:19:41.684Z,73.72
2023-03-29T01:20:41.968Z,73.72
2023-03-29T01:21:42.315Z,73.72
2023-03-29T01:22:42.671Z,73.72
2023-03-29T01:23:42.980Z,73.62
2023-03-29T01:24:43.272Z,73.52
2023-03-29T01:25:43.582Z,73.62
2023-03-29T01:26:43.905Z,73.62
2023-03-29T01:27:44.229Z,73.72
2023-03-29T01:28:44.555Z,73.83
2023-03-29T01:29:44.841Z,73.93
2023-03-29T01:30:45.185Z,73.93
2023-03-29T01:31:45.611Z,73.93
2023-03-29T01:32:45.906Z,73.72
2023-03-29T01:33:46.090Z,73.27
2023-03-29T01:34:46.416Z,72.86
2023-03-29T01:35:46.761Z,72.75
2023-03-29T01:36:47.111Z,72.44
2023-03-29T01:37:47.343Z,71.81
2023-03-29T01:38:47.535Z,71.85
2023-03-29T01:39:47.871Z,71.85
2023-03-29T01:40:48.186Z,72.06
2023-03-29T01:41:48.494Z,72.27
2023-03-29T01:42:48.806Z,72.58
2023-03-29T01:43:49.131Z,72.92
2023-03-29T01:44:49.436Z,73.13
2023-03-29T01:45:49.764Z,73.24
2023-03-29T01:46:50.048Z,73.45
2023-03-29T01:47:50.438Z,73.66
2023-03-29T01:48:50.743Z,73.97
2023-03-29T01:49:51.001Z,74.18
2023-03-29T01:50:51.214Z,74.28
2023-03-29T01:51:51.530Z,74.25
2023-03-29T01:52:51.891Z,74.25
2023-03-29T01:53:52.081Z,74.25
2023-03-29T01:54:52.375Z,74.25
2023-03-29T01:55:52.715Z,74.15
2023-03-29T01:56:53.131Z,73.93
2023-03-29T01:57:53.428Z,73.62
2023-03-29T01:58:53.738Z,73.52
2023-03-29T01:59:54.050Z,73.62
2023-03-29T02:00:54.398Z,73.31
2023-03-29T02:01:54.778Z,72.86
2023-03-29T02:02:55.140Z,72.65
2023-03-29T02:03:55.284Z,72.78
2023-03-29T02:04:55.594Z,72.86
2023-03-29T02:05:55.899Z,72.86
2023-03-29T02:06:56.215Z,73.10
2023-03-29T02:07:56.501Z,73.21
2023-03-29T02:08:56.794Z,73.10
2023-03-29T02:09:57.133Z,73.10
2023-03-29T02:10:57.447Z,73.00
2023-03-29T02:11:57.728Z,73.00
2023-03-29T02:12:58.855Z,73.00
2023-03-29T02:13:58.335Z,73.00
2023-03-29T02:14:58.610Z,73.00
2023-03-29T02:15:58.982Z,73.10
2023-03-29T02:16:59.231Z,73.10
2023-03-29T02:17:59.618Z,73.10
2023-03-29T02:18:59.934Z,73.21
2023-03-29T02:20:00.208Z,73.31
2023-03-29T02:21:00.799Z,73.31
2023-03-29T02:22:00.773Z,73.21
2023-03-29T02:23:01.088Z,73.21
2023-03-29T02:24:01.386Z,73.10
2023-03-29T02:25:01.676Z,73.10
2023-03-29T02:26:01.973Z,73.21
2023-03-29T02:27:02.303Z,73.31
2023-03-29T02:28:02.632Z,73.31
2023-03-29T02:29:02.945Z,73.31
2023-03-29T02:30:03.212Z,73.31
2023-03-29T02:31:03.746Z,73.21
2023-03-29T02:32:03.739Z,73.21
2023-03-29T02:33:04.121Z,73.31
2023-03-29T02:34:04.292Z,73.31
2023-03-29T02:35:04.550Z,73.52
2023-03-29T02:36:04.994Z,73.62
2023-03-29T02:37:05.132Z,73.62
2023-03-29T02:38:05.482Z,73.72
2023-03-29T02:39:05.778Z,73.72
2023-03-29T02:40:06.112Z,73.72
2023-03-29T02:41:06.399Z,73.83
2023-03-29T02:42:06.732Z,73.93
2023-03-29T02:43:07.054Z,73.93
2023-03-29T02:44:07.332Z,73.93
2023-03-29T02:45:07.621Z,73.93
2023-03-29T02:46:08.041Z,73.93
2023-03-29T02:47:08.213Z,73.93
2023-03-29T02:48:08.558Z,74.04
2023-03-29T02:49:08.824Z,74.04
2023-03-29T02:50:09.128Z,74.15
2023-03-29T02:51:09.430Z,74.15
2023-03-29T02:52:09.725Z,74.25
2023-03-29T02:53:10.036Z,74.15
2023-03-29T02:54:10.327Z,74.04
2023-03-29T02:55:10.639Z,74.15
2023-03-29T02:56:10.923Z,74.25
2023-03-29T02:57:11.268Z,74.25
2023-03-29T02:58:11.548Z,74.25
2023-03-29T02:59:11.860Z,74.25
2023-03-29T03:00:12.131Z,74.35
2023-03-29T03:01:12.500Z,74.25
2023-03-29T03:02:12.805Z,74.25
2023-03-29T03:03:13.228Z,74.25
2023-03-29T03:04:13.565Z,74.25
2023-03-29T03:05:13.834Z,74.25
2023-03-29T03:06:14.023Z,74.35
2023-03-29T03:07:14.308Z,74.25
2023-03-29T03:08:14.691Z,74.35
2023-03-29T03:09:14.990Z,74.15
2023-03-29T03:10:15.307Z,74.25
2023-03-29T03:11:15.604Z,74.25
2023-03-29T03:12:15.903Z,74.15
2023-03-29T03:13:16.227Z,74.25
2023-03-29T03:14:16.556Z,74.15
2023-03-29T03:15:16.777Z,74.04
2023-03-29T03:16:17.112Z,73.93
2023-03-29T03:17:17.397Z,73.93
2023-03-29T03:18:17.740Z,74.04
2023-03-29T03:19:17.943Z,73.93
2023-03-29T03:20:18.271Z,73.93
2023-03-29T03:21:18.599Z,74.04
2023-03-29T03:22:18.928Z,73.93
2023-03-29T03:23:19.260Z,74.04
2023-03-29T03:24:19.557Z,74.15
2023-03-29T03:25:19.886Z,74.15
2023-03-29T03:26:20.251Z,74.28
2023-03-29T03:27:20.540Z,74.15
2023-03-29T03:28:20.864Z,74.28
2023-03-29T03:29:21.162Z,74.18
2023-03-29T03:30:21.494Z,74.18
2023-03-29T03:31:21.822Z,74.38
2023-03-29T03:32:22.116Z,74.38
2023-03-29T03:33:22.445Z,74.49
2023-03-29T03:34:22.764Z,74.49
2023-03-29T03:35:23.055Z,74.49
2023-03-29T03:36:23.388Z,74.60
2023-03-29T03:37:23.705Z,74.70
2023-03-29T03:38:24.101Z,74.60
2023-03-29T03:39:24.263Z,74.49
2023-03-29T03:40:25.579Z,74.49
2023-03-29T03:41:24.826Z,74.60
2023-03-29T03:42:25.148Z,74.60
2023-03-29T03:43:25.471Z,74.70
2023-03-29T03:44:25.767Z,74.70
2023-03-29T03:45:26.137Z,74.70
2023-03-29T03:46:27.792Z,74.66
2023-03-29T03:47:26.653Z,74.66
2023-03-29T03:48:26.981Z,74.77
2023-03-29T03:49:27.260Z,74.77
2023-03-29T03:50:27.663Z,74.98
2023-03-29T03:51:27.845Z,75.08
2023-03-29T03:52:28.188Z,75.18
2023-03-29T03:53:28.529Z,75.29
2023-03-29T03:54:28.813Z,75.40
2023-03-29T03:55:29.100Z,75.50
2023-03-29T03:56:29.455Z,75.40
2023-03-29T03:57:29.755Z,75.18
2023-03-29T03:58:30.039Z,74.87
2023-03-29T03:59:30.332Z,74.87
2023-03-29T04:00:30.641Z,74.66
2023-03-29T04:01:30.944Z,74.66
2023-03-29T04:02:31.292Z,74.66
2023-03-29T04:03:31.527Z,74.77
2023-03-29T04:04:31.880Z,74.77
2023-03-29T04:05:32.053Z,74.80
2023-03-29T04:06:32.365Z,75.01
2023-03-29T04:07:32.644Z,75.22
2023-03-29T04:08:32.997Z,75.43
2023-03-29T04:09:33.372Z,75.53
2023-03-29T04:10:33.611Z,75.53
2023-03-29T04:11:33.948Z,75.63
2023-03-29T04:12:34.264Z,75.74
2023-03-29T04:13:34.585Z,75.85
2023-03-29T04:14:34.905Z,75.85
2023-03-29T04:15:35.230Z,75.85
2023-03-29T04:16:35.544Z,75.85
2023-03-29T04:17:35.925Z,75.74
2023-03-29T04:18:36.192Z,75.85
2023-03-29T04:19:36.371Z,75.95
2023-03-29T04:20:36.702Z,76.06
2023-03-29T04:21:37.013Z,76.16
2023-03-29T04:22:37.299Z,76.16
2023-03-29T04:23:37.641Z,76.26
2023-03-29T04:24:37.950Z,76.26
2023-03-29T04:25:38.267Z,76.37
2023-03-29T04:26:38.590Z,76.37
2023-03-29T04:27:38.946Z,76.47
2023-03-29T04:28:39.234Z,76.47
2023-03-29T04:29:39.433Z,76.47
2023-03-29T04:30:39.736Z,76.47
2023-03-29T04:31:40.097Z,76.37
2023-03-29T04:32:40.468Z,76.37
2023-03-29T04:33:40.763Z,76.47
2023-03-29T04:34:41.047Z,76.47
2023-03-29T04:35:41.403Z,76.57
2023-03-29T04:36:41.675Z,76.57
2023-03-29T04:37:41.987Z,76.68
2023-03-29T04:38:43.377Z,76.47
2023-03-29T04:39:42.680Z,76.47
2023-03-29T04:40:42.891Z,76.47
2023-03-29T04:41:43.228Z,76.57
2023-03-29T04:42:43.571Z,76.68
2023-03-29T04:43:43.915Z,76.68
2023-03-29T04:44:44.261Z,76.79
2023-03-29T04:45:44.536Z,76.68
2023-03-29T04:46:44.826Z,76.47
2023-03-29T04:47:45.040Z,76.37
2023-03-29T04:48:45.240Z,76.23
2023-03-29T04:49:45.571Z,76.26
2023-03-29T04:50:45.895Z,76.16
2023-03-29T04:51:46.218Z,76.26
2023-03-29T04:52:46.541Z,76.26
2023-03-29T04:53:46.802Z,76.12
2023-03-29T04:54:47.165Z,76.02
2023-03-29T04:55:47.243Z,75.92
2023-03-29T04:56:47.640Z,75.92
2023-03-29T04:57:47.846Z,75.92
2023-03-29T04:58:48.178Z,76.02
2023-03-29T04:59:48.386Z,76.02
2023-03-29T05:00:48.711Z,75.92
2023-03-29T05:01:49.059Z,75.92
2023-03-29T05:02:49.285Z,75.92
2023-03-29T05:03:49.690Z,76.02
2023-03-29T05:04:49.888Z,76.12
2023-03-29T05:05:50.123Z,76.23
2023-03-29T05:06:50.426Z,76.33
2023-03-29T05:07:50.760Z,76.23
2023-03-29T05:08:51.095Z,76.12
2023-03-29T05:09:52.282Z,76.12
2023-03-29T05:10:51.567Z,76.33
2023-03-29T05:11:51.773Z,76.33
2023-03-29T05:12:52.097Z,76.43
2023-03-29T05:13:52.484Z,76.43
2023-03-29T05:14:52.688Z,76.43
2023-03-29T05:15:53.097Z,76.33
2023-03-29T05:16:53.284Z,76.33
2023-03-29T05:17:53.712Z,76.23
2023-03-29T05:18:54.005Z,76.23
2023-03-29T05:19:54.259Z,76.12
2023-03-29T05:20:54.576Z,76.12
2023-03-29T05:21:54.916Z,75.98
2023-03-29T05:22:55.258Z,75.98
2023-03-29T05:23:55.597Z,75.78
2023-03-29T05:24:55.800Z,75.78
2023-03-29T05:25:56.062Z,75.88
2023-03-29T05:26:56.404Z,75.98
2023-03-29T05:27:56.717Z,76.09
2023-03-29T05:28:57.071Z,75.98
2023-03-29T05:29:57.397Z,75.85
2023-03-29T05:30:57.764Z,75.74
2023-03-29T05:31:58.078Z,75.74
2023-03-29T05:32:58.258Z,75.64
2023-03-29T05:33:58.647Z,75.53
2023-03-29T05:34:58.973Z,75.64
2023-03-29T05:35:59.152Z,75.53
2023-03-29T05:36:59.493Z,75.43
2023-03-29T05:37:59.696Z,75.22
2023-03-29T05:38:59.973Z,75.12
2023-03-29T05:40:06.072Z,75.01
2023-03-29T05:41:02.094Z,75.01
2023-03-29T05:42:00.819Z,75.01
2023-03-29T05:43:01.064Z,74.87
2023-03-29T05:44:01.296Z,74.87
2023-03-29T05:45:01.656Z,74.77
2023-03-29T05:46:01.942Z,74.56
2023-03-29T05:47:02.109Z,74.46
2023-03-29T05:48:02.422Z,74.46
2023-03-29T05:49:02.813Z,74.46
2023-03-29T05:50:02.888Z,74.43
2023-03-29T05:51:03.231Z,74.11
2023-03-29T05:52:03.365Z,73.90
2023-03-29T05:53:03.797Z,73.69
2023-03-29T05:54:04.019Z,73.56
2023-03-29T05:55:04.261Z,73.56
2023-03-29T05:56:04.526Z,73.32
2023-03-29T05:57:04.724Z,73.21
2023-03-29T05:58:05.035Z,72.76
2023-03-29T05:59:05.382Z,72.45
2023-03-29T06:00:05.641Z,72.45
2023-03-29T06:01:05.972Z,72.34
2023-03-29T06:02:06.340Z,72.28
2023-03-29T06:03:14.112Z,72.28
2023-03-29T06:04:08.010Z,72.38
2023-03-29T06:05:07.329Z,72.49
2023-03-29T06:06:07.584Z,72.49
2023-03-29T06:07:07.661Z,72.49
2023-03-29T06:08:07.955Z,72.69
2023-03-29T06:09:08.180Z,72.69
2023-03-29T06:10:08.402Z,72.90
2023-03-29T06:11:09.241Z,73.11
2023-03-29T06:12:09.048Z,73.21
2023-03-29T06:13:09.287Z,73.32
2023-03-29T06:14:09.517Z,73.42
2023-03-29T06:15:09.835Z,73.42
2023-03-29T06:16:10.181Z,73.32
2023-03-29T06:17:10.472Z,73.11
2023-03-29T06:18:10.728Z,72.97
2023-03-29T06:19:10.928Z,72.97
2023-03-29T06:20:11.144Z,72.86
2023-03-29T06:21:11.513Z,72.66
2023-03-29T06:22:13.715Z,72.45
2023-03-29T06:23:11.962Z,72.45
2023-03-29T06:24:12.355Z,72.45
2023-03-29T06:25:12.546Z,72.42
2023-03-29T06:26:12.756Z,72.31
2023-03-29T06:27:13.219Z,72.31
2023-03-29T06:28:13.245Z,72.31
2023-03-29T06:29:13.525Z,72.31
2023-03-29T06:30:13.782Z,72.11
2023-03-29T06:31:14.126Z,72.21
2023-03-29T06:32:14.256Z,72.21
2023-03-29T06:33:14.503Z,72.21
2023-03-29T06:34:14.742Z,72.28
2023-03-29T06:35:15.016Z,72.28
2023-03-29T06:36:15.355Z,72.07
2023-03-29T06:37:15.590Z,72.07
2023-03-29T06:38:15.790Z,71.97
2023-03-29T06:39:16.146Z,71.94
2023-03-29T06:40:16.384Z,71.62
2023-03-29T06:41:16.629Z,71.62
2023-03-29T06:42:21.680Z,71.42
2023-03-29T06:43:18.201Z,71.21
2023-03-29T06:44:17.531Z,71.42
2023-03-29T06:45:17.722Z,71.31
2023-03-29T06:46:18.133Z,71.28
2023-03-29T06:47:18.307Z,70.76
2023-03-29T06:48:18.647Z,70.45
2023-03-29T06:49:18.912Z,70.66
2023-03-29T06:50:19.168Z,70.69
2023-03-29T06:51:21.186Z,70.79
2023-03-29T06:52:19.672Z,71.00
2023-03-29T06:53:19.939Z,71.11
2023-03-29T06:54:20.214Z,71.21
2023-03-29T06:55:20.462Z,71.31
2023-03-29T06:56:20.683Z,71.39
2023-03-29T06:57:21.048Z,71.59
2023-03-29T06:58:21.145Z,71.70
2023-03-29T06:59:21.419Z,71.59
2023-03-29T07:00:21.656Z,71.59
2023-03-29T07:01:21.933Z,71.59
2023-03-29T07:02:22.126Z,71.80
2023-03-29T07:03:22.362Z,71.49
2023-03-29T07:04:23.092Z,71.28
2023-03-29T07:05:22.985Z,71.39
2023-03-29T07:06:23.327Z,71.59
2023-03-29T07:07:23.683Z,71.59
2023-03-29T07:08:23.923Z,71.70
2023-03-29T07:09:24.152Z,71.70
2023-03-29T07:10:24.381Z,71.56
2023-03-29T07:11:25.372Z,71.35
2023-03-29T07:12:24.927Z,71.56
2023-03-29T07:13:25.147Z,71.56
2023-03-29T07:14:25.530Z,71.66
2023-03-29T07:15:25.741Z,71.66
2023-03-29T07:16:26.131Z,71.56
2023-03-29T07:17:26.357Z,71.56
2023-03-29T07:18:26.570Z,71.45
2023-03-29T07:19:26.818Z,70.94
2023-03-29T07:20:27.071Z,71.01
2023-03-29T07:21:27.367Z,70.80
2023-03-29T07:22:27.730Z,70.70
2023-03-29T07:23:27.951Z,70.70
2023-03-29T07:24:28.270Z,70.70
2023-03-29T07:25:28.603Z,70.80
2023-03-29T07:26:30.144Z,70.59
2023-03-29T07:27:29.159Z,70.25
2023-03-29T07:28:29.669Z,70.36
2023-03-29T07:29:29.736Z,70.04
2023-03-29T07:30:32.044Z,69.94
2023-03-29T07:31:30.221Z,70.04
2023-03-29T07:32:30.636Z,69.84
2023-03-29T07:33:30.898Z,69.63
2023-03-29T07:34:31.163Z,69.70
2023-03-29T07:35:31.391Z,69.39
2023-03-29T07:36:31.618Z,69.29
2023-03-29T07:37:31.966Z,69.39
2023-03-29T07:38:32.310Z,69.39
2023-03-29T07:39:32.651Z,68.46
2023-03-29T07:40:32.910Z,67.63
2023-03-29T07:41:33.198Z,67.32
2023-03-29T07:42:33.481Z,67.42
2023-03-29T07:43:33.683Z,67.39
2023-03-29T07:44:34.031Z,67.29
2023-03-29T07:45:34.251Z,67.39
2023-03-29T07:46:34.503Z,67.39
2023-03-29T07:47:34.758Z,67.08
2023-03-29T07:48:35.827Z,66.97
2023-03-29T07:49:35.418Z,66.94
2023-03-29T07:50:35.630Z,66.84
2023-03-29T07:51:36.116Z,66.32
2023-03-29T07:52:36.218Z,65.91
2023-03-29T07:53:36.484Z,65.70
2023-03-29T07:54:36.784Z,65.81
2023-03-29T07:55:37.047Z,65.91
2023-03-29T07:56:37.320Z,65.70
2023-03-29T07:57:37.493Z,65.81
2023-03-29T07:58:45.252Z,66.32
2023-03-29T07:59:38.091Z,66.53
2023-03-29T08:00:38.435Z,66.74
2023-03-29T08:01:38.591Z,66.63
2023-03-29T08:02:38.875Z,66.12
2023-03-29T08:03:39.109Z,66.19
2023-03-29T08:04:39.502Z,66.09
2023-03-29T08:05:41.788Z,65.78
2023-03-29T08:06:39.942Z,65.50
2023-03-29T08:07:40.274Z,65.60
2023-03-29T08:08:40.677Z,65.50
2023-03-29T08:09:40.878Z,65.29
2023-03-29T08:10:41.102Z,65.57
2023-03-29T08:11:41.354Z,65.67
2023-03-29T08:12:41.588Z,65.99
2023-03-29T08:13:41.812Z,65.99
2023-03-29T08:14:42.106Z,66.19
2023-03-29T08:15:42.301Z,66.39
2023-03-29T08:16:42.663Z,66.57
2023-03-29T08:17:42.927Z,65.85
2023-03-29T08:18:43.137Z,65.95
2023-03-29T08:19:51.254Z,65.75
2023-03-29T08:20:44.596Z,65.44
2023-03-29T08:21:43.947Z,65.23
2023-03-29T08:22:44.199Z,64.92
2023-03-29T08:23:44.377Z,64.81
2023-03-29T08:24:44.718Z,64.71
2023-03-29T08:25:44.975Z,64.92
2023-03-29T08:26:45.177Z,64.71
2023-03-29T08:27:45.465Z,64.81
2023-03-29T08:28:45.744Z,65.12
2023-03-29T08:29:45.983Z,65.64
2023-03-29T08:30:46.257Z,65.85
2023-03-29T08:31:46.485Z,65.64
2023-03-29T08:32:50.343Z,64.92
2023-03-29T08:33:46.992Z,64.89
2023-03-29T08:34:47.258Z,64.58
2023-03-29T08:35:47.541Z,64.37
2023-03-29T08:36:47.759Z,64.06
2023-03-29T08:37:47.977Z,64.06
2023-03-29T08:38:48.238Z,64.86
2023-03-29T08:39:48.516Z,64.96
2023-03-29T08:40:48.748Z,64.14
2023-03-29T08:41:48.973Z,63.82
2023-03-29T08:42:49.272Z,64.45
2023-03-29T08:43:49.464Z,65.14
2023-03-29T08:44:49.766Z,64.93
2023-03-29T08:45:51.154Z,64.31
2023-03-29T08:46:50.324Z,64.21
2023-03-29T08:47:50.576Z,64.42
2023-03-29T08:48:50.820Z,64.11
2023-03-29T08:49:51.071Z,63.69
2023-03-29T08:50:51.310Z,63.59
2023-03-29T08:51:51.527Z,64.18
2023-03-29T08:52:51.858Z,64.70
2023-03-29T08:53:52.215Z,64.07
2023-03-29T08:54:52.452Z,63.67
2023-03-29T08:55:52.675Z,63.46
2023-03-29T08:56:53.060Z,63.01
2023-03-29T08:57:53.284Z,62.71
2023-03-29T08:58:53.653Z,62.71
2023-03-29T08:59:53.881Z,63.01
2023-03-29T09:00:54.209Z,63.12
2023-03-29T09:01:54.658Z,63.32
2023-03-29T09:02:55.042Z,62.81
2023-03-29T09:03:55.209Z,62.63
2023-03-29T09:04:55.479Z,63.64
2023-03-29T09:05:55.701Z,63.74
2023-03-29T09:06:56.072Z,63.64
2023-03-29T09:07:56.288Z,63.43
2023-03-29T09:08:56.634Z,63.64
2023-03-29T09:09:56.874Z,64.15
2023-03-29T09:10:57.110Z,63.50
2023-03-29T09:11:57.338Z,62.88
2023-03-29T09:12:57.727Z,62.78
2023-03-29T09:13:57.918Z,62.78
2023-03-29T09:14:58.346Z,62.16
2023-03-29T09:15:58.615Z,62.68
2023-03-29T09:16:58.938Z,62.99
2023-03-29T09:17:59.218Z,62.16
2023-03-29T09:18:59.466Z,62.99
2023-03-29T09:19:59.777Z,63.47
2023-03-29T09:21:00.288Z,62.85
2023-03-29T09:22:00.409Z,62.13
2023-03-29T09:23:00.627Z,62.65
2023-03-29T09:24:00.847Z,62.54
2023-03-29T09:25:01.132Z,63.17
2023-03-29T09:26:01.348Z,63.24
2023-03-29T09:27:01.629Z,63.24
2023-03-29T09:28:01.819Z,62.52
2023-03-29T09:29:02.150Z,62.52
2023-03-29T09:30:02.535Z,62.52
2023-03-29T09:31:02.926Z,62.82
2023-03-29T09:32:03.095Z,63.00
2023-03-29T09:33:03.442Z,62.79
2023-03-29T09:34:03.696Z,62.10
2023-03-29T09:35:03.907Z,62.38
2023-03-29T09:36:04.313Z,62.07
2023-03-29T09:37:04.435Z,61.77
2023-03-29T09:38:04.680Z,62.38
2023-03-29T09:39:04.982Z,62.07
2023-03-29T09:40:05.383Z,62.15
2023-03-29T09:41:05.744Z,62.15
2023-03-29T09:42:05.805Z,61.74
2023-03-29T09:43:06.135Z,61.63
2023-03-29T09:44:06.668Z,61.63
2023-03-29T09:45:06.851Z,61.53
2023-03-29T09:46:07.074Z,61.33
2023-03-29T09:47:07.396Z,61.43
2023-03-29T09:48:07.722Z,61.53
2023-03-29T09:49:07.919Z,62.02
2023-03-29T09:50:16.637Z,61.30
2023-03-29T09:51:09.482Z,61.61
2023-03-29T09:52:08.772Z,61.91
2023-03-29T09:53:09.132Z,62.33
2023-03-29T09:54:09.488Z,61.71
2023-03-29T09:55:09.716Z,61.30
2023-03-29T09:56:10.061Z,60.75
2023-03-29T09:57:10.354Z,59.93
2023-03-29T09:58:10.580Z,59.73
2023-03-29T09:59:10.824Z,60.35
2023-03-29T10:00:11.142Z,60.45
2023-03-29T10:01:11.395Z,59.42
2023-03-29T10:02:11.711Z,59.80
2023-03-29T10:03:12.111Z,59.80
2023-03-29T10:04:12.531Z,59.50
2023-03-29T10:05:12.722Z,58.78
2023-03-29T10:06:13.052Z,59.19
2023-03-29T10:07:13.401Z,58.57
2023-03-29T10:08:13.650Z,58.23
2023-03-29T10:09:13.873Z,58.44
2023-03-29T10:10:14.182Z,58.13
2023-03-29T10:11:14.466Z,58.13
2023-03-29T10:12:14.792Z,58.23
2023-03-29T10:13:14.968Z,57.93
2023-03-29T10:14:15.338Z,57.72
2023-03-29T10:15:26.737Z,58.13
2023-03-29T10:16:16.964Z,58.21
2023-03-29T10:17:16.320Z,58.21
2023-03-29T10:18:16.498Z,58.11
2023-03-29T10:19:16.857Z,58.41
2023-03-29T10:20:17.127Z,58.51
2023-03-29T10:21:17.414Z,57.90
2023-03-29T10:22:17.592Z,58.39
2023-03-29T10:23:17.813Z,58.49
2023-03-29T10:24:18.059Z,58.18
2023-03-29T10:25:18.323Z,58.18
2023-03-29T10:26:18.564Z,57.77
2023-03-29T10:27:18.890Z,57.56
2023-03-29T10:28:19.267Z,58.00
2023-03-29T10:29:19.539Z,58.80
2023-03-29T10:30:19.739Z,58.90
2023-03-29T10:31:20.150Z,58.28
2023-03-29T10:32:20.385Z,57.98
2023-03-29T10:33:20.635Z,57.77
2023-03-29T10:34:20.872Z,57.98
2023-03-29T10:35:21.118Z,57.77
2023-03-29T10:36:21.336Z,57.56
2023-03-29T10:37:21.715Z,57.87
2023-03-29T10:38:21.949Z,57.77
2023-03-29T10:39:22.144Z,58.18
2023-03-29T10:40:22.503Z,57.77
2023-03-29T10:41:22.737Z,57.46
2023-03-29T10:42:23.136Z,57.46
2023-03-29T10:43:23.302Z,57.56
2023-03-29T10:44:23.673Z,57.67
2023-03-29T10:45:23.942Z,57.77
2023-03-29T10:46:24.209Z,57.77
2023-03-29T10:47:24.417Z,58.18
2023-03-29T10:48:24.751Z,58.39
2023-03-29T10:49:25.089Z,58.46
2023-03-29T10:50:25.462Z,58.67
2023-03-29T10:51:25.679Z,58.36
2023-03-29T10:52:26.026Z,57.87
2023-03-29T10:53:26.391Z,58.15
2023-03-29T10:54:26.637Z,58.46
2023-03-29T10:55:26.882Z,58.67
2023-03-29T10:56:27.126Z,58.77
2023-03-29T10:57:27.407Z,59.18
2023-03-29T10:58:27.709Z,58.67
2023-03-29T10:59:27.920Z,58.64
2023-03-29T11:00:28.174Z,58.23
2023-03-29T11:01:28.468Z,58.33
2023-03-29T11:02:28.768Z,58.44
2023-03-29T11:03:29.972Z,58.23
2023-03-29T11:04:29.347Z,58.33
2023-03-29T11:05:29.584Z,58.23
2023-03-29T11:06:29.921Z,58.64
2023-03-29T11:07:30.192Z,58.23
2023-03-29T11:08:31.852Z,58.64
2023-03-29T11:09:32.168Z,58.36
2023-03-29T11:10:31.072Z,58.77
2023-03-29T11:11:31.292Z,59.28
2023-03-29T11:12:31.671Z,59.08
2023-03-29T11:13:31.874Z,59.25
2023-03-29T11:14:32.217Z,59.87
2023-03-29T11:15:32.639Z,59.46
2023-03-29T11:16:32.839Z,59.25
2023-03-29T11:17:33.197Z,58.95
2023-03-29T11:18:33.522Z,59.36
2023-03-29T11:19:33.777Z,59.25
2023-03-29T11:20:34.014Z,59.87
2023-03-29T11:21:34.251Z,59.77
2023-03-29T11:22:34.481Z,58.95
2023-03-29T11:23:34.725Z,59.56
2023-03-29T11:24:34.959Z,59.66
2023-03-29T11:25:35.359Z,59.84
2023-03-29T11:26:35.597Z,59.74
2023-03-29T11:27:35.823Z,58.92
2023-03-29T11:28:36.091Z,58.72
2023-03-29T11:29:36.325Z,58.89
2023-03-29T11:30:36.636Z,59.20
2023-03-29T11:31:38.778Z,59.00
2023-03-29T11:32:37.216Z,58.38
2023-03-29T11:33:37.461Z,58.58
2023-03-29T11:34:37.648Z,58.66
2023-03-29T11:35:37.982Z,58.25
2023-03-29T11:36:38.178Z,57.94
2023-03-29T11:37:38.427Z,58.04
2023-03-29T11:38:38.658Z,57.94
2023-03-29T11:39:38.889Z,58.04
2023-03-29T11:40:39.156Z,58.04
2023-03-29T11:41:39.350Z,58.15
2023-03-29T11:42:39.703Z,58.25
2023-03-29T11:43:40.033Z,58.45
2023-03-29T11:44:40.399Z,58.12
2023-03-29T11:45:40.651Z,58.73
2023-03-29T11:46:40.944Z,58.43
2023-03-29T11:47:41.236Z,58.33
2023-03-29T11:48:41.431Z,58.12
2023-03-29T11:49:41.761Z,59.04
2023-03-29T11:50:42.007Z,58.12
2023-03-29T11:51:42.221Z,57.30
2023-03-29T11:52:42.464Z,58.22
2023-03-29T11:53:42.695Z,58.12
2023-03-29T11:54:43.088Z,58.22
2023-03-29T11:55:43.361Z,58.63
2023-03-29T11:56:43.638Z,58.50
2023-03-29T11:57:43.861Z,57.99
2023-03-29T11:58:44.139Z,57.48
2023-03-29T11:59:44.355Z,57.38
2023-03-29T12:00:44.659Z,57.28
2023-03-29T12:01:44.917Z,57.68
2023-03-29T12:02:45.221Z,57.99
2023-03-29T12:03:46.919Z,57.68
2023-03-29T12:04:45.758Z,57.28
2023-03-29T12:05:46.027Z,57.17
2023-03-29T12:06:46.256Z,57.35
2023-03-29T12:07:46.588Z,57.15
2023-03-29T12:08:46.942Z,56.94
2023-03-29T12:09:47.104Z,57.56
2023-03-29T12:10:47.339Z,57.45
2023-03-29T12:11:47.591Z,56.84
2023-03-29T12:12:47.906Z,57.04
2023-03-29T12:13:48.103Z,57.15
2023-03-29T12:14:48.359Z,57.45
2023-03-29T12:15:48.892Z,56.61
2023-03-29T12:16:49.022Z,57.12
2023-03-29T12:17:49.243Z,56.92
2023-03-29T12:18:49.487Z,57.43
2023-03-29T12:19:49.766Z,57.32
2023-03-29T12:20:49.960Z,57.32
2023-03-29T12:21:50.190Z,56.92
2023-03-29T12:22:50.453Z,56.92
2023-03-29T12:23:50.693Z,57.32
2023-03-29T12:24:50.908Z,57.12
2023-03-29T12:25:51.268Z,57.12
2023-03-29T12:26:51.519Z,56.92
2023-03-29T12:27:51.760Z,56.53
2023-03-29T12:28:51.995Z,56.94
2023-03-29T12:29:52.216Z,57.56
2023-03-29T12:30:52.483Z,56.94
2023-03-29T12:31:52.785Z,56.74
2023-03-29T12:32:53.083Z,56.63
2023-03-29T12:33:53.306Z,57.04
2023-03-29T12:34:53.554Z,57.25
2023-03-29T12:35:53.831Z,57.25
2023-03-29T12:36:54.060Z,56.53
2023-03-29T12:37:54.294Z,57.04
2023-03-29T12:38:54.603Z,56.53
2023-03-29T12:39:54.857Z,56.63
2023-03-29T12:40:55.149Z,56.53
2023-03-29T12:41:55.314Z,56.33
2023-03-29T12:42:55.561Z,56.74
2023-03-29T12:43:55.776Z,57.35
2023-03-29T12:44:56.031Z,56.84
2023-03-29T12:45:56.313Z,56.74
2023-03-29T12:46:56.575Z,57.04
2023-03-29T12:47:56.895Z,57.25
2023-03-29T12:48:57.178Z,57.15
2023-03-29T12:49:57.441Z,57.04
2023-03-29T12:50:57.787Z,57.15
2023-03-29T12:51:58.848Z,56.94
2023-03-29T12:52:58.326Z,57.25
2023-03-29T12:53:58.560Z,56.84
2023-03-29T12:54:58.813Z,56.53
2023-03-29T12:55:59.040Z,56.33